createdAt,value
2023-07-07T00:01:22.216Z,5.20
2023-07-07T00:03:58.891Z,5.50
2023-07-07T00:06:28.085Z,5.70
2023-07-07T00:09:01.159Z,5.40
2023-07-07T00:11:29.817Z,5.67
2023-07-07T00:14:01.829Z,5.47
2023-07-07T00:16:30.590Z,5.40
2023-07-07T00:19:05.158Z,5.57
2023-07-07T00:21:33.575Z,5.97
2023-07-07T00:24:11.498Z,5.70
2023-07-07T00:26:41.791Z,5.70
2023-07-07T00:29:19.192Z,5.63
2023-07-07T00:31:47.399Z,5.60
2023-07-07T00:34:19.277Z,5.70
2023-07-07T00:36:53.538Z,5.53
2023-07-07T00:39:24.093Z,5.60
2023-07-07T00:41:58.187Z,5.90
2023-07-07T00:44:39.719Z,5.63
2023-07-07T00:47:25.409Z,5.47
2023-07-07T00:50:08.011Z,4.87
2023-07-07T00:52:37.680Z,5.30
2023-07-07T00:55:10.383Z,5.23
2023-07-07T00:57:45.238Z,5.53
2023-07-07T01:00:22.039Z,5.60
2023-07-07T01:02:55.221Z,4.73
2023-07-07T01:05:33.345Z,5.77
2023-07-07T01:08:08.344Z,5.40
2023-07-07T01:10:36.675Z,4.70
2023-07-07T01:13:09.238Z,5.13
2023-07-07T01:15:46.674Z,6.00
2023-07-07T01:18:22.030Z,5.00
2023-07-07T01:21:03.032Z,5.53
2023-07-07T01:24:03.477Z,5.50
2023-07-07T01:27:19.539Z,4.83
2023-07-07T01:30:32.792Z,5.30
2023-07-07T01:33:09.706Z,4.53
2023-07-07T01:35:39.534Z,4.70
2023-07-07T01:38:15.693Z,5.77
2023-07-07T01:40:49.939Z,4.70
2023-07-07T01:43:25.968Z,4.70
2023-07-07T01:46:05.242Z,5.00
2023-07-07T01:48:49.777Z,5.13
2023-07-07T01:51:21.973Z,5.30
2023-07-07T01:53:51.680Z,5.40
2023-07-07T01:56:32.498Z,5.10
2023-07-07T01:59:04.574Z,5.23
2023-07-07T02:01:36.233Z,4.10
2023-07-07T02:04:15.542Z,5.37
2023-07-07T02:06:52.072Z,6.03
2023-07-07T02:09:29.282Z,5.30
2023-07-07T02:11:59.739Z,5.60
2023-07-07T02:14:28.783Z,5.03
2023-07-07T02:16:56.789Z,4.73
2023-07-07T02:19:36.374Z,5.43
2023-07-07T02:22:07.120Z,5.60
2023-07-07T02:24:38.910Z,5.37
2023-07-07T02:27:11.898Z,5.73
2023-07-07T02:29:51.933Z,5.23
2023-07-07T02:32:31.934Z,4.77
2023-07-07T02:35:15.533Z,5.07
2023-07-07T02:37:46.300Z,4.87
2023-07-07T02:40:20.261Z,5.20
2023-07-07T02:42:58.849Z,5.20
2023-07-07T02:45:32.494Z,4.50
2023-07-07T02:48:03.095Z,5.53
2023-07-07T02:50:33.672Z,4.77
2023-07-07T02:53:01.828Z,4.30
2023-07-07T02:55:35.659Z,5.60
2023-07-07T02:58:08.962Z,5.50
2023-07-07T03:00:38.587Z,5.40
2023-07-07T03:03:17.290Z,4.70
2023-07-07T03:05:50.395Z,4.60
2023-07-07T03:08:21.266Z,5.90
2023-07-07T03:10:54.715Z,4.60
2023-07-07T03:13:27.326Z,5.03
2023-07-07T03:15:59.628Z,4.70
2023-07-07T03:18:31.114Z,5.33
2023-07-07T03:21:07.574Z,4.77
2023-07-07T03:23:38.289Z,4.90
2023-07-07T03:26:15.028Z,4.93
2023-07-07T03:28:51.196Z,4.80
2023-07-07T03:31:25.381Z,5.43
2023-07-07T03:34:05.295Z,4.87
2023-07-07T03:36:46.525Z,5.20
2023-07-07T03:39:21.290Z,5.47
2023-07-07T03:41:58.123Z,4.60
2023-07-07T03:44:27.310Z,5.17
2023-07-07T03:47:01.586Z,5.47
2023-07-07T03:49:32.461Z,5.80
2023-07-07T03:52:06.396Z,5.53
2023-07-07T03:54:35.113Z,5.43
2023-07-07T03:57:12.043Z,5.63
2023-07-07T03:59:43.283Z,4.60
2023-07-07T04:02:14.655Z,4.90
2023-07-07T04:04:48.605Z,5.10
2023-07-07T04:07:21.759Z,5.27
2023-07-07T04:09:52.688Z,5.13
2023-07-07T04:12:24.687Z,5.50
2023-07-07T04:14:58.388Z,5.23
2023-07-07T04:17:32.394Z,5.30
2023-07-07T04:20:01.905Z,5.10
2023-07-07T04:22:43.936Z,4.53
2023-07-07T04:25:15.967Z,5.60
2023-07-07T04:27:46.281Z,6.30
2023-07-07T04:30:21.388Z,5.87
2023-07-07T04:32:52.581Z,5.10
2023-07-07T04:35:23.678Z,5.67
2023-07-07T04:38:01.595Z,4.90
2023-07-07T04:40:34.353Z,5.43
2023-07-07T04:43:03.185Z,5.77
2023-07-07T04:45:35.497Z,5.70
2023-07-07T04:48:11.150Z,5.70
2023-07-07T04:50:42.969Z,5.90
2023-07-07T04:53:16.740Z,5.90
2023-07-07T04:55:47.822Z,5.43
2023-07-07T04:58:21.103Z,5.90
2023-07-07T05:00:55.243Z,5.10
2023-07-07T05:03:24.227Z,5.63
2023-07-07T05:05:55.272Z,4.93
2023-07-07T05:08:27.003Z,5.40
2023-07-07T05:10:55.814Z,6.10
2023-07-07T05:13:30.830Z,6.13
2023-07-07T05:16:06.227Z,6.50
2023-07-07T05:18:37.499Z,6.10
2023-07-07T05:21:07.298Z,5.40
2023-07-07T05:23:48.361Z,5.80
2023-07-07T05:26:19.011Z,5.97
2023-07-07T05:28:52.294Z,6.23
2023-07-07T05:31:26.880Z,6.00
2023-07-07T05:33:58.277Z,5.73
2023-07-07T05:36:29.927Z,5.73
2023-07-07T05:39:00.681Z,6.00
2023-07-07T05:41:30.050Z,5.73
2023-07-07T05:44:06.786Z,5.90
2023-07-07T05:46:40.769Z,5.43
2023-07-07T05:49:11.584Z,6.10
2023-07-07T05:51:45.728Z,5.57
2023-07-07T05:54:27.586Z,6.10
2023-07-07T05:57:00.294Z,6.20
2023-07-07T05:59:39.773Z,6.20
2023-07-07T06:02:10.653Z,6.33
2023-07-07T06:04:42.322Z,5.37
2023-07-07T06:07:13.416Z,5.47
2023-07-07T06:09:50.896Z,6.17
2023-07-07T06:12:21.618Z,6.00
2023-07-07T06:14:49.690Z,5.77
2023-07-07T06:17:22.558Z,5.90
2023-07-07T06:19:52.061Z,5.90
2023-07-07T06:22:21.413Z,5.90
2023-07-07T06:24:52.541Z,6.43
2023-07-07T06:27:26.511Z,5.40
2023-07-07T06:30:05.420Z,5.40
2023-07-07T06:32:37.399Z,5.90
2023-07-07T06:35:07.145Z,6.23
2023-07-07T06:37:40.735Z,6.43
2023-07-07T06:40:22.096Z,6.40
2023-07-07T06:42:52.816Z,5.23
2023-07-07T06:45:23.537Z,5.23
2023-07-07T06:47:52.804Z,5.37
2023-07-07T06:50:28.762Z,5.60
2023-07-07T06:52:56.834Z,6.20
2023-07-07T06:55:29.305Z,5.50
2023-07-07T06:58:00.943Z,6.17
2023-07-07T07:00:32.317Z,5.80
2023-07-07T07:03:01.743Z,5.77
2023-07-07T07:05:32.901Z,6.23
2023-07-07T07:08:08.989Z,6.27
2023-07-07T07:10:41.697Z,5.30
2023-07-07T07:13:14.573Z,5.70
2023-07-07T07:15:50.565Z,5.90
2023-07-07T07:18:19.899Z,5.63
2023-07-07T07:20:51.766Z,5.77
2023-07-07T07:23:21.509Z,5.10
2023-07-07T07:25:59.186Z,5.17
2023-07-07T07:28:27.408Z,4.77
2023-07-07T07:31:03.607Z,4.27
2023-07-07T07:33:33.317Z,5.27
2023-07-07T07:36:02.439Z,4.87
2023-07-07T07:38:36.812Z,5.67
2023-07-07T07:41:20.364Z,4.97
2023-07-07T07:43:50.766Z,4.50
2023-07-07T07:46:33.143Z,4.90
2023-07-07T07:49:02.285Z,4.33
2023-07-07T07:51:36.666Z,5.00
2023-07-07T07:54:12.313Z,5.20
2023-07-07T07:56:45.834Z,4.70
2023-07-07T07:59:23.234Z,4.50
2023-07-07T08:01:52.749Z,4.40
2023-07-07T08:04:21.317Z,4.67
2023-07-07T08:06:56.120Z,5.20
2023-07-07T08:09:36.706Z,5.00
2023-07-07T08:12:24.656Z,5.70
2023-07-07T08:14:58.588Z,5.07
2023-07-07T08:17:32.302Z,4.43
2023-07-07T08:20:01.319Z,4.70
2023-07-07T08:22:38.906Z,4.27
2023-07-07T08:25:15.152Z,4.80
2023-07-07T08:30:33.595Z,4.50
2023-07-07T08:33:10.131Z,4.80
2023-07-07T08:35:42.171Z,4.97
2023-07-07T08:38:16.690Z,4.70
2023-07-07T08:40:52.849Z,4.40
2023-07-07T08:43:34.279Z,4.60
2023-07-07T08:46:12.446Z,4.50
2023-07-07T08:48:54.150Z,3.77
2023-07-07T08:51:29.405Z,4.87
2023-07-07T08:54:13.733Z,4.20
2023-07-07T08:56:49.446Z,3.93
2023-07-07T08:59:40.138Z,3.87
2023-07-07T09:02:19.713Z,3.80
2023-07-07T09:04:58.791Z,4.20
2023-07-07T09:07:55.424Z,4.00
2023-07-07T09:10:38.318Z,3.57
2023-07-07T09:13:18.049Z,3.40
2023-07-07T09:16:02.003Z,3.47
2023-07-07T09:18:38.603Z,2.70
2023-07-07T09:21:23.509Z,2.87
2023-07-07T09:23:56.832Z,3.63
2023-07-07T09:26:29.654Z,3.50
2023-07-07T09:29:06.595Z,3.20
2023-07-07T09:31:42.685Z,3.00
2023-07-07T09:34:14.286Z,3.83
2023-07-07T09:36:53.012Z,3.10
2023-07-07T09:39:50.011Z,3.07
2023-07-07T09:42:33.327Z,3.07
2023-07-07T09:45:13.086Z,2.90
2023-07-07T09:47:50.956Z,3.27
2023-07-07T09:50:44.534Z,3.43
2023-07-07T09:53:24.185Z,3.07
2023-07-07T09:56:04.471Z,2.90
2023-07-07T09:58:39.711Z,3.53
2023-07-07T10:01:19.163Z,2.93
2023-07-07T10:03:55.201Z,3.23
2023-07-07T10:06:33.426Z,3.40
2023-07-07T10:09:04.150Z,2.93
2023-07-07T10:14:20.603Z,3.63
2023-07-07T10:17:03.777Z,3.40
2023-07-07T10:19:45.158Z,2.90
2023-07-07T10:22:16.740Z,3.27
2023-07-07T10:24:51.403Z,3.00
2023-07-07T10:27:26.230Z,3.07
2023-07-07T10:30:01.637Z,3.47
2023-07-07T10:32:33.593Z,3.10
2023-07-07T10:35:11.522Z,2.90
2023-07-07T10:37:41.653Z,2.70
2023-07-07T10:40:15.400Z,3.00
2023-07-07T10:42:54.938Z,3.47
2023-07-07T10:45:28.544Z,2.97
2023-07-07T10:47:59.441Z,3.27
2023-07-07T10:50:37.249Z,2.90
2023-07-07T10:53:28.841Z,3.10
2023-07-07T10:56:21.402Z,3.30
2023-07-07T10:59:18.773Z,3.33
2023-07-07T11:02:04.682Z,3.37
2023-07-07T11:04:59.258Z,3.23
2023-07-07T11:07:49.253Z,3.20
2023-07-07T11:10:48.507Z,3.90
2023-07-07T11:13:23.300Z,2.63
2023-07-07T11:16:04.752Z,3.13
2023-07-07T11:19:00.085Z,3.37
2023-07-07T11:21:43.541Z,2.70
2023-07-07T11:24:35.798Z,3.13
2023-07-07T11:27:38.998Z,3.40
2023-07-07T11:30:18.501Z,3.27
2023-07-07T11:32:58.856Z,3.20
2023-07-07T11:35:41.473Z,3.27
2023-07-07T11:38:53.513Z,3.10
2023-07-07T11:41:36.804Z,2.80
2023-07-07T11:44:26.725Z,3.30
2023-07-07T11:47:13.176Z,3.10
2023-07-07T11:52:50.304Z,2.97
2023-07-07T11:55:30.467Z,3.10
2023-07-07T11:58:15.947Z,3.40
2023-07-07T12:00:53.157Z,3.13
2023-07-07T12:03:49.761Z,3.37
2023-07-07T12:06:33.450Z,3.30
2023-07-07T12:09:08.868Z,3.20
2023-07-07T12:11:46.301Z,3.07
2023-07-07T12:14:32.753Z,3.13
2023-07-07T12:17:01.789Z,3.17
2023-07-07T12:19:38.467Z,3.33
2023-07-07T12:22:15.281Z,3.20
2023-07-07T12:24:48.388Z,2.93
2023-07-07T12:27:24.518Z,3.03
2023-07-07T12:30:01.076Z,3.03
2023-07-07T12:32:32.388Z,2.70
2023-07-07T12:35:13.199Z,2.87
2023-07-07T12:37:50.814Z,2.93
2023-07-07T12:40:30.879Z,2.67
2023-07-07T12:43:13.429Z,3.20
2023-07-07T12:45:53.067Z,3.17
2023-07-07T12:48:24.207Z,3.07
2023-07-07T12:50:53.593Z,3.37
2023-07-07T12:53:32.318Z,2.97
2023-07-07T12:56:20.440Z,2.83
2023-07-07T12:58:54.095Z,2.60
2023-07-07T13:01:46.015Z,3.40
2023-07-07T13:04:27.832Z,2.73
2023-07-07T13:07:11.557Z,2.40
2023-07-07T13:10:00.865Z,2.70
2023-07-07T13:12:51.437Z,2.47
2023-07-07T13:15:32.343Z,2.93
2023-07-07T13:18:09.478Z,2.67
2023-07-07T13:20:43.880Z,2.80
2023-07-07T13:23:18.637Z,2.60
2023-07-07T13:26:00.454Z,3.23
2023-07-07T13:28:37.693Z,2.47
2023-07-07T13:31:11.721Z,2.20
2023-07-07T13:33:51.006Z,2.47
2023-07-07T13:36:24.183Z,2.60
2023-07-07T13:38:58.271Z,2.73
2023-07-07T13:41:39.373Z,2.40
2023-07-07T13:44:24.111Z,3.20
2023-07-07T13:47:08.561Z,2.47
2023-07-07T13:49:48.907Z,2.67
2023-07-07T13:52:25.206Z,2.37
2023-07-07T13:54:56.921Z,2.43
2023-07-07T13:57:30.611Z,2.70
2023-07-07T14:00:08.226Z,2.67
2023-07-07T14:02:59.375Z,2.27
2023-07-07T14:05:57.014Z,2.63
2023-07-07T14:08:30.334Z,2.30
2023-07-07T14:11:10.540Z,2.80
2023-07-07T14:13:45.852Z,2.67
2023-07-07T14:16:24.208Z,2.90
2023-07-07T14:19:02.569Z,2.10
2023-07-07T14:21:37.440Z,2.70
2023-07-07T14:24:07.953Z,2.20
2023-07-07T14:26:42.010Z,2.30
2023-07-07T14:29:22.932Z,2.20
2023-07-07T14:31:54.704Z,2.80
2023-07-07T14:34:23.228Z,2.20
2023-07-07T14:37:06.900Z,2.53
2023-07-07T14:39:39.812Z,3.00
2023-07-07T14:42:22.873Z,2.57
2023-07-07T14:44:59.090Z,2.23
2023-07-07T14:47:31.059Z,2.40
2023-07-07T14:50:05.941Z,2.40
2023-07-07T14:52:55.104Z,2.37
2023-07-07T14:55:28.109Z,2.20
2023-07-07T14:58:01.435Z,2.20
2023-07-07T15:00:36.805Z,2.30
2023-07-07T15:03:36.825Z,2.30
2023-07-07T15:06:28.528Z,2.30
2023-07-07T15:09:03.967Z,2.50
2023-07-07T15:11:43.302Z,2.10
2023-07-07T15:14:18.358Z,2.27
2023-07-07T15:16:55.809Z,2.27
2023-07-07T15:19:31.347Z,2.23
2023-07-07T15:22:05.579Z,2.47
2023-07-07T15:24:54.676Z,2.50
2023-07-07T15:27:25.731Z,2.63
2023-07-07T15:29:56.064Z,2.17
2023-07-07T15:32:34.079Z,2.63
2023-07-07T15:35:07.761Z,2.70
2023-07-07T15:37:47.643Z,2.30
2023-07-07T15:40:23.565Z,2.40
2023-07-07T15:43:12.095Z,2.50
2023-07-07T15:45:53.436Z,2.70
2023-07-07T15:48:26.804Z,1.70
2023-07-07T15:51:05.048Z,2.70
2023-07-07T15:53:36.893Z,2.70
2023-07-07T15:56:18.885Z,2.30
2023-07-07T15:58:51.865Z,2.17
2023-07-07T16:01:19.998Z,2.87
2023-07-07T16:03:52.095Z,2.40
2023-07-07T16:06:28.829Z,2.70
2023-07-07T16:08:59.653Z,2.00
2023-07-07T16:11:41.260Z,2.50
2023-07-07T16:14:23.836Z,2.60
2023-07-07T16:16:57.891Z,2.60
2023-07-07T16:19:32.866Z,2.50
2023-07-07T16:22:06.293Z,2.27
2023-07-07T16:24:43.464Z,2.40
2023-07-07T16:27:21.986Z,2.77
2023-07-07T16:29:50.225Z,2.87
2023-07-07T16:32:26.927Z,2.90
2023-07-07T16:34:58.250Z,2.27
2023-07-07T16:37:31.759Z,2.03
2023-07-07T16:40:04.131Z,2.60
2023-07-07T16:42:41.137Z,2.73
2023-07-07T16:45:19.857Z,2.10
2023-07-07T16:47:57.173Z,2.13
2023-07-07T16:50:28.927Z,2.13
2023-07-07T16:53:07.859Z,2.53
2023-07-07T16:55:44.993Z,2.53
2023-07-07T16:58:19.685Z,2.80
2023-07-07T17:00:50.675Z,2.20
2023-07-07T17:03:21.719Z,2.03
2023-07-07T17:05:58.457Z,1.80
2023-07-07T17:08:37.213Z,2.27
2023-07-07T17:11:20.974Z,2.00
2023-07-07T17:13:56.353Z,2.77
2023-07-07T17:16:39.052Z,2.90
2023-07-07T17:19:19.649Z,2.77
2023-07-07T17:21:53.376Z,2.90
2023-07-07T17:24:24.194Z,2.40
2023-07-07T17:26:55.112Z,2.73
2023-07-07T17:29:38.897Z,2.70
2023-07-07T17:32:18.208Z,2.13
2023-07-07T17:34:48.779Z,2.13
2023-07-07T17:37:19.831Z,2.70
2023-07-07T17:40:03.235Z,2.97
2023-07-07T17:42:37.628Z,2.50
2023-07-07T17:45:18.973Z,2.20
2023-07-07T17:47:48.161Z,2.47
2023-07-07T17:50:28.062Z,2.70
2023-07-07T17:52:57.396Z,2.60
2023-07-07T17:55:25.739Z,2.93
2023-07-07T17:57:54.069Z,2.40
2023-07-07T18:00:25.942Z,3.43
2023-07-07T18:02:56.985Z,2.90
2023-07-07T18:05:34.646Z,2.93
2023-07-07T18:08:04.403Z,2.93
2023-07-07T18:10:44.434Z,2.80
2023-07-07T18:13:20.607Z,2.70
2023-07-07T18:16:03.907Z,2.73
2023-07-07T18:19:06.295Z,3.20
2023-07-07T18:21:51.820Z,2.80
2023-07-07T18:24:22.181Z,3.30
2023-07-07T18:26:52.699Z,3.53
2023-07-07T18:29:33.705Z,3.33
2023-07-07T18:32:10.547Z,3.23
2023-07-07T18:34:39.912Z,3.80
2023-07-07T18:37:11.675Z,2.60
2023-07-07T18:39:48.140Z,2.30
2023-07-07T18:42:17.878Z,2.90
2023-07-07T18:44:55.425Z,2.80
2023-07-07T18:47:34.489Z,2.90
2023-07-07T18:50:18.226Z,2.60
2023-07-07T18:52:49.502Z,3.00
2023-07-07T18:55:23.879Z,2.57
2023-07-07T18:58:06.301Z,2.93
2023-07-07T19:00:38.276Z,2.43
2023-07-07T19:03:11.963Z,2.50
2023-07-07T19:05:41.855Z,2.80
2023-07-07T19:08:19.695Z,3.00
2023-07-07T19:10:51.133Z,2.93
2023-07-07T19:13:25.019Z,3.03
2023-07-07T19:16:02.382Z,3.30
2023-07-07T19:18:37.666Z,4.00
2023-07-07T19:21:16.429Z,3.20
2023-07-07T19:23:49.779Z,3.27
2023-07-07T19:26:28.741Z,2.87
2023-07-07T19:29:06.051Z,3.00
2023-07-07T19:31:44.871Z,3.67
2023-07-07T19:34:23.637Z,3.83
2023-07-07T19:36:55.648Z,3.77
2023-07-07T19:39:27.914Z,3.10
2023-07-07T19:41:59.415Z,3.73
2023-07-07T19:44:30.534Z,3.10
2023-07-07T19:47:02.397Z,3.80
2023-07-07T19:49:36.074Z,3.70
2023-07-07T19:52:20.381Z,4.20
2023-07-07T19:54:57.924Z,4.10
2023-07-07T19:57:31.893Z,3.90
2023-07-07T20:00:16.220Z,3.90
2023-07-07T20:02:50.278Z,4.13
2023-07-07T20:05:43.621Z,3.73
2023-07-07T20:08:25.830Z,4.20
2023-07-07T20:11:05.233Z,4.00
2023-07-07T20:13:36.610Z,3.77
2023-07-07T20:16:07.184Z,4.20
2023-07-07T20:18:41.274Z,4.60
2023-07-07T20:21:17.770Z,4.80
2023-07-07T20:23:51.511Z,4.43
2023-07-07T20:26:25.342Z,4.50
2023-07-07T20:29:05.936Z,5.30
2023-07-07T20:31:36.407Z,4.60
2023-07-07T20:34:12.477Z,5.00
2023-07-07T20:36:47.162Z,5.67
2023-07-07T20:39:25.738Z,5.40
2023-07-07T20:42:09.670Z,4.87
2023-07-07T20:44:41.976Z,5.37
2023-07-07T20:47:11.617Z,4.70
2023-07-07T20:49:50.911Z,5.03
2023-07-07T20:52:20.829Z,4.07
2023-07-07T20:54:51.197Z,4.53
2023-07-07T20:57:28.846Z,4.70
2023-07-07T21:00:03.262Z,4.57
2023-07-07T21:02:34.023Z,4.47
2023-07-07T21:05:05.554Z,4.00
2023-07-07T21:07:40.461Z,4.53
2023-07-07T21:10:24.874Z,3.90
2023-07-07T21:12:56.112Z,4.30
2023-07-07T21:15:27.141Z,4.10
2023-07-07T21:17:59.337Z,3.87
2023-07-07T21:20:32.881Z,4.43
2023-07-07T21:23:19.437Z,4.77
2023-07-07T21:25:58.225Z,3.57
2023-07-07T21:28:36.036Z,4.97
2023-07-07T21:31:13.078Z,4.10
2023-07-07T21:33:44.191Z,4.77
2023-07-07T21:36:20.627Z,4.70
2023-07-07T21:38:52.224Z,4.80
2023-07-07T21:41:31.373Z,3.93
2023-07-07T21:44:00.143Z,4.10
2023-07-07T21:46:30.601Z,4.70
2023-07-07T21:49:05.980Z,5.27
2023-07-07T21:51:35.509Z,5.00
2023-07-07T21:54:15.862Z,3.90
2023-07-07T21:56:46.652Z,4.57
2023-07-07T21:59:24.184Z,5.00
2023-07-07T22:01:54.665Z,5.50
2023-07-07T22:04:26.309Z,4.70
2023-07-07T22:06:55.437Z,4.93
2023-07-07T22:09:28.036Z,4.90
2023-07-07T22:11:56.773Z,5.40
2023-07-07T22:14:26.740Z,4.70
2023-07-07T22:16:58.543Z,5.50
2023-07-07T22:19:30.199Z,5.13
2023-07-07T22:22:00.007Z,4.70
2023-07-07T22:24:34.415Z,5.57
2023-07-07T22:27:12.409Z,4.83
2023-07-07T22:29:40.945Z,4.90
2023-07-07T22:32:32.829Z,4.80
2023-07-07T22:35:07.635Z,5.10
2023-07-07T22:37:37.149Z,4.63
2023-07-07T22:40:19.930Z,4.80
2023-07-07T22:42:49.112Z,5.17
2023-07-07T22:45:20.498Z,4.40
2023-07-07T22:47:50.737Z,6.00
2023-07-07T22:50:21.416Z,5.30
2023-07-07T22:53:01.015Z,5.33
2023-07-07T22:55:39.323Z,4.50
2023-07-07T22:58:16.779Z,5.23
2023-07-07T23:00:49.000Z,5.13
2023-07-07T23:03:25.408Z,5.50
2023-07-07T23:05:55.630Z,5.30
2023-07-07T23:08:27.310Z,5.23
2023-07-07T23:11:06.631Z,5.70
2023-07-07T23:13:38.085Z,4.83
2023-07-07T23:16:14.131Z,5.20
2023-07-07T23:18:45.858Z,5.03
2023-07-07T23:21:19.222Z,4.90
2023-07-07T23:23:50.934Z,5.53
2023-07-07T23:26:28.724Z,5.47
2023-07-07T23:28:59.725Z,5.50
2023-07-07T23:31:32.621Z,4.93
2023-07-07T23:34:03.502Z,5.40
2023-07-07T23:36:35.474Z,4.83
2023-07-07T23:39:15.785Z,5.97
2023-07-07T23:41:50.475Z,4.70
2023-07-07T23:44:21.045Z,5.40
2023-07-07T23:46:58.890Z,5.50
2023-07-07T23:49:30.036Z,4.83
2023-07-07T23:51:58.583Z,5.50
2023-07-07T23:54:40.415Z,4.83
2023-07-07T23:57:15.751Z,4.60
2023-07-07T23:59:46.085Z,4.50
